createdAt,value
2023-05-05T00:01:15.200Z,3.88
2023-05-05T00:05:16.613Z,3.53
2023-05-05T00:09:18.203Z,3.73
2023-05-05T00:13:20.920Z,3.75
2023-05-05T00:17:22.222Z,4.05
2023-05-05T00:21:23.515Z,3.42
2023-05-05T00:25:24.909Z,3.88
2023-05-05T00:29:26.632Z,3.73
2023-05-05T00:33:28.005Z,3.65
2023-05-05T00:37:29.351Z,3.42
2023-05-05T00:41:31.893Z,4.40
2023-05-05T00:45:33.283Z,3.50
2023-05-05T00:49:35.782Z,3.78
2023-05-05T00:53:39.659Z,3.93
2023-05-05T00:57:40.963Z,3.90
2023-05-05T01:01:42.355Z,3.63
2023-05-05T01:06:04.393Z,4.10
2023-05-05T01:10:26.064Z,3.77
2023-05-05T01:14:40.864Z,4.03
2023-05-05T01:19:14.960Z,4.43
2023-05-05T01:23:51.699Z,4.80
2023-05-05T01:27:56.065Z,4.60
2023-05-05T01:32:14.257Z,5.73
2023-05-05T01:36:24.154Z,5.00
2023-05-05T01:40:30.098Z,5.30
2023-05-05T01:44:34.647Z,5.73
2023-05-05T01:48:37.391Z,5.20
2023-05-05T01:52:41.138Z,5.03
2023-05-05T01:56:43.380Z,4.60
2023-05-05T02:00:45.521Z,4.27
2023-05-05T02:04:47.960Z,4.53
2023-05-05T02:08:50.976Z,4.27
2023-05-05T02:12:53.284Z,4.17
2023-05-05T02:16:56.923Z,4.53
2023-05-05T02:20:58.329Z,4.10
2023-05-05T02:24:59.770Z,4.20
2023-05-05T02:29:07.831Z,4.50
2023-05-05T02:33:17.134Z,5.20
2023-05-05T02:37:23.101Z,4.70
2023-05-05T02:41:26.801Z,4.50
2023-05-05T02:45:28.428Z,4.80
2023-05-05T02:49:29.919Z,4.53
2023-05-05T02:53:31.633Z,4.57
2023-05-05T02:57:47.348Z,4.70
2023-05-05T03:02:12.564Z,5.17
2023-05-05T03:06:17.337Z,5.40
2023-05-05T03:10:21.772Z,5.27
2023-05-05T03:14:24.630Z,5.47
2023-05-05T03:18:28.860Z,5.17
2023-05-05T03:22:30.613Z,5.50
2023-05-05T03:26:31.931Z,5.40
2023-05-05T03:30:33.236Z,5.90
2023-05-05T03:34:37.282Z,5.20
2023-05-05T03:38:38.600Z,5.53
2023-05-05T03:42:40.008Z,6.03
2023-05-05T03:46:41.389Z,5.87
2023-05-05T03:50:44.948Z,5.73
2023-05-05T03:54:46.345Z,5.90
2023-05-05T03:58:47.769Z,6.40
2023-05-05T04:02:49.144Z,5.83
2023-05-05T04:06:50.481Z,5.60
2023-05-05T04:10:51.832Z,6.03
2023-05-05T04:14:53.131Z,6.43
2023-05-05T04:18:55.311Z,6.27
2023-05-05T04:22:56.611Z,6.20
2023-05-05T04:26:57.971Z,6.80
2023-05-05T04:31:01.010Z,6.80
2023-05-05T04:35:02.549Z,6.50
2023-05-05T04:39:04.323Z,6.03
2023-05-05T04:43:06.931Z,7.90
2023-05-05T04:47:08.606Z,7.20
2023-05-05T04:51:10.102Z,6.27
2023-05-05T04:55:12.461Z,6.87
2023-05-05T04:59:14.588Z,7.00
2023-05-05T05:03:15.981Z,15.17
2023-05-05T05:07:17.331Z,13.05
2023-05-05T05:11:18.769Z,30.63
2023-05-05T05:15:20.257Z,14.83
2023-05-05T05:19:21.716Z,8.87
2023-05-05T05:23:23.108Z,6.50
2023-05-05T05:27:24.420Z,6.60
2023-05-05T05:31:25.803Z,7.05
2023-05-05T05:35:27.158Z,8.40
2023-05-05T05:39:28.444Z,8.00
2023-05-05T05:43:29.796Z,16.42
2023-05-05T05:47:31.174Z,10.20
2023-05-05T05:51:32.571Z,19.10
2023-05-05T05:55:33.987Z,11.15
2023-05-05T05:59:35.264Z,16.05
2023-05-05T06:03:36.653Z,8.10
2023-05-05T06:07:38.220Z,8.02
2023-05-05T06:11:39.688Z,16.08
2023-05-05T06:15:41.061Z,14.63
2023-05-05T06:19:43.302Z,11.10
2023-05-05T06:23:44.669Z,16.27
2023-05-05T06:27:46.311Z,12.18
2023-05-05T06:31:47.623Z,10.55
2023-05-05T06:35:51.885Z,17.42
2023-05-05T06:39:53.331Z,9.80
2023-05-05T06:43:54.649Z,9.23
2023-05-05T06:47:56.025Z,9.20
2023-05-05T06:51:57.398Z,10.45
2023-05-05T06:55:58.704Z,9.50
2023-05-05T07:00:00.396Z,10.98
2023-05-05T07:04:01.936Z,9.52
2023-05-05T07:08:03.672Z,9.73
2023-05-05T07:12:05.244Z,8.98
2023-05-05T07:16:06.775Z,10.25
2023-05-05T07:20:10.860Z,9.70
2023-05-05T07:24:12.377Z,9.40
2023-05-05T07:28:13.733Z,9.38
2023-05-05T07:32:15.209Z,8.48
2023-05-05T07:36:17.904Z,8.77
2023-05-05T07:40:19.613Z,7.30
2023-05-05T07:44:21.117Z,6.82
2023-05-05T07:48:22.558Z,6.85
2023-05-05T07:52:37.098Z,7.60
2023-05-05T07:56:45.803Z,7.03
2023-05-05T08:00:47.858Z,5.38
2023-05-05T08:04:49.302Z,4.75
2023-05-05T08:08:55.204Z,5.18
2023-05-05T08:12:56.636Z,5.57
2023-05-05T08:16:57.995Z,5.80
2023-05-05T08:20:59.309Z,5.65
2023-05-05T08:25:00.649Z,5.20
2023-05-05T08:29:02.286Z,7.07
2023-05-05T08:33:03.751Z,8.32
2023-05-05T08:37:05.198Z,8.10
2023-05-05T08:41:09.769Z,7.65
2023-05-05T08:45:11.912Z,8.35
2023-05-05T08:49:15.844Z,8.70
2023-05-05T08:53:19.853Z,6.78
2023-05-05T08:57:28.286Z,7.25
2023-05-05T09:01:31.867Z,7.85
2023-05-05T09:05:33.279Z,9.77
2023-05-05T09:09:35.456Z,8.43
2023-05-05T09:13:36.834Z,8.85
2023-05-05T09:17:39.029Z,8.52
2023-05-05T09:21:48.880Z,7.65
2023-05-05T09:26:04.344Z,9.02
2023-05-05T09:30:06.503Z,10.45
2023-05-05T09:34:15.811Z,8.63
2023-05-05T09:38:18.695Z,8.88
2023-05-05T09:42:20.059Z,8.75
2023-05-05T09:46:21.779Z,10.35
2023-05-05T09:50:23.486Z,10.00
2023-05-05T09:54:29.591Z,11.52
2023-05-05T09:58:31.316Z,12.38
2023-05-05T10:02:35.081Z,7.60
2023-05-05T10:06:43.878Z,7.72
2023-05-05T10:10:54.287Z,8.43
2023-05-05T10:14:56.397Z,7.65
2023-05-05T10:19:01.465Z,4.82
2023-05-05T10:23:06.610Z,4.47
2023-05-05T10:27:19.104Z,5.38
2023-05-05T10:31:37.003Z,5.10
2023-05-05T10:35:41.626Z,6.75
2023-05-05T10:39:44.589Z,6.28
2023-05-05T10:43:46.845Z,5.50
2023-05-05T10:47:49.879Z,5.20
2023-05-05T10:52:20.707Z,5.85
2023-05-05T10:56:27.846Z,7.15
2023-05-05T11:00:49.678Z,6.28
2023-05-05T11:05:17.962Z,5.47
2023-05-05T11:09:29.654Z,4.80
2023-05-05T11:13:31.471Z,5.35
2023-05-05T11:17:46.573Z,8.23
2023-05-05T11:22:01.835Z,7.70
2023-05-05T11:26:04.068Z,5.25
2023-05-05T11:30:10.732Z,3.65
2023-05-05T11:34:26.780Z,2.35
2023-05-05T11:38:41.091Z,1.80
2023-05-05T11:42:42.597Z,2.97
2023-05-05T11:46:53.001Z,3.43
2023-05-05T11:50:54.831Z,4.53
2023-05-05T11:55:01.697Z,4.53
2023-05-05T11:59:11.007Z,4.10
2023-05-05T12:03:12.530Z,4.57
2023-05-05T12:07:19.006Z,4.23
2023-05-05T12:11:20.986Z,3.77
2023-05-05T12:15:32.303Z,4.67
2023-05-05T12:19:34.598Z,3.40
2023-05-05T12:23:39.158Z,3.20
2023-05-05T12:27:41.247Z,3.17
2023-05-05T12:31:42.915Z,3.42
2023-05-05T12:35:44.355Z,3.65
2023-05-05T12:39:45.869Z,3.25
2023-05-05T12:43:47.609Z,3.58
2023-05-05T12:47:48.926Z,3.55
2023-05-05T12:51:55.388Z,3.05
2023-05-05T12:55:56.738Z,2.70
2023-05-05T12:59:58.279Z,2.60
2023-05-05T13:04:08.244Z,2.38
2023-05-05T13:08:09.692Z,2.63
2023-05-05T13:12:11.926Z,3.30
2023-05-05T13:16:13.360Z,3.15
2023-05-05T13:20:15.330Z,3.47
2023-05-05T13:28:21.099Z,3.60
2023-05-05T13:32:23.641Z,3.50
2023-05-05T13:36:25.184Z,4.38
2023-05-05T13:40:26.520Z,3.90
2023-05-05T13:44:27.841Z,4.07
2023-05-05T13:48:29.210Z,3.72
2023-05-05T13:52:32.116Z,4.20
2023-05-05T13:56:35.104Z,4.32
2023-05-05T14:00:36.833Z,4.40
2023-05-05T14:04:38.357Z,3.17
2023-05-05T14:08:39.750Z,4.10
2023-05-05T14:12:41.190Z,4.30
2023-05-05T14:16:42.486Z,3.60
2023-05-05T14:20:43.898Z,4.55
2023-05-05T14:24:45.318Z,4.30
2023-05-05T14:28:48.393Z,5.07
2023-05-05T14:32:51.220Z,4.88
2023-05-05T14:36:52.677Z,5.38
2023-05-05T14:40:54.162Z,5.00
2023-05-05T14:44:55.565Z,5.15
2023-05-05T14:48:57.710Z,6.03
2023-05-05T14:52:59.083Z,5.65
2023-05-05T14:57:00.561Z,4.93
2023-05-05T15:01:01.906Z,4.93
2023-05-05T15:05:03.310Z,5.23
2023-05-05T15:09:04.661Z,3.97
2023-05-05T15:13:06.386Z,2.80
2023-05-05T15:17:07.736Z,2.20
2023-05-05T15:21:09.108Z,1.57
2023-05-05T15:25:12.424Z,2.50
2023-05-05T15:29:13.850Z,3.03
2023-05-05T15:33:15.265Z,3.03
2023-05-05T15:37:16.670Z,2.70
2023-05-05T15:41:18.059Z,3.20
2023-05-05T15:45:19.398Z,3.90
2023-05-05T15:49:20.769Z,2.50
2023-05-05T15:53:22.080Z,2.63
2023-05-05T15:57:23.441Z,2.83
2023-05-05T16:01:24.847Z,2.40
2023-05-05T16:05:26.160Z,2.70
2023-05-05T16:09:27.721Z,3.30
2023-05-05T16:13:29.147Z,3.70
2023-05-05T16:17:30.993Z,2.67
2023-05-05T16:21:33.271Z,2.80
2023-05-05T16:25:34.605Z,2.70
2023-05-05T16:29:36.153Z,2.83
2023-05-05T16:33:40.725Z,2.50
2023-05-05T16:37:42.040Z,2.60
2023-05-05T16:41:43.320Z,2.83
2023-05-05T16:45:44.609Z,3.77
2023-05-05T16:49:45.967Z,4.13
2023-05-05T16:53:48.933Z,3.43
2023-05-05T16:57:50.532Z,2.50
2023-05-05T17:01:51.878Z,3.23
2023-05-05T17:05:53.536Z,3.20
2023-05-05T17:09:55.029Z,2.93
2023-05-05T17:13:56.326Z,3.17
2023-05-05T17:17:57.778Z,3.60
2023-05-05T17:21:59.300Z,2.87
2023-05-05T17:26:00.683Z,3.27
2023-05-05T17:30:02.082Z,3.90
2023-05-05T17:34:03.372Z,4.13
2023-05-05T17:38:04.712Z,3.80
2023-05-05T17:42:06.112Z,3.77
2023-05-05T17:46:07.492Z,4.30
2023-05-05T17:50:10.894Z,4.87
2023-05-05T17:54:12.214Z,4.77
2023-05-05T17:58:13.645Z,4.80
2023-05-05T18:02:15.307Z,7.57
2023-05-05T18:06:16.930Z,7.63
2023-05-05T18:10:18.342Z,9.10
2023-05-05T18:14:20.316Z,11.23
2023-05-05T18:18:22.099Z,14.13
2023-05-05T18:22:23.501Z,16.30
2023-05-05T18:26:25.028Z,16.23
2023-05-05T18:30:26.446Z,16.53
2023-05-05T18:34:29.366Z,15.10
2023-05-05T18:38:32.589Z,14.20
2023-05-05T18:42:33.948Z,15.73
2023-05-05T18:46:35.419Z,13.77
2023-05-05T18:50:37.128Z,13.10
2023-05-05T18:54:38.530Z,12.80
2023-05-05T18:58:39.800Z,14.60
2023-05-05T19:02:41.154Z,14.90
2023-05-05T19:06:42.533Z,15.87
2023-05-05T19:10:43.954Z,16.60
2023-05-05T19:14:45.426Z,15.40
2023-05-05T19:18:46.783Z,14.73
2023-05-05T19:22:48.266Z,15.23
2023-05-05T19:26:49.712Z,13.23
2023-05-05T19:30:52.080Z,12.23
2023-05-05T19:34:56.555Z,14.97
2023-05-05T19:39:03.124Z,12.00
2023-05-05T19:43:04.551Z,12.80
2023-05-05T19:47:05.945Z,12.33
2023-05-05T19:51:07.356Z,14.53
2023-05-05T19:55:10.323Z,13.77
2023-05-05T19:59:12.019Z,13.80
2023-05-05T20:03:13.684Z,13.83
2023-05-05T20:07:15.737Z,12.57
2023-05-05T20:11:17.216Z,13.77
2023-05-05T20:15:20.414Z,15.37
2023-05-05T20:19:21.732Z,15.43
2023-05-05T20:23:23.144Z,15.97
2023-05-05T20:27:26.569Z,16.07
2023-05-05T20:31:28.780Z,18.23
2023-05-05T20:35:30.374Z,18.77
2023-05-05T20:39:31.738Z,18.80
2023-05-05T20:43:33.921Z,24.47
2023-05-05T20:47:35.716Z,27.43
2023-05-05T20:51:37.029Z,24.60
2023-05-05T20:55:38.387Z,28.13
2023-05-05T20:59:39.773Z,27.20
2023-05-05T21:03:41.279Z,29.13
2023-05-05T21:07:42.782Z,25.63
2023-05-05T21:11:44.189Z,24.77
2023-05-05T21:15:45.515Z,24.83
2023-05-05T21:19:47.003Z,25.37
2023-05-05T21:23:48.380Z,25.07
2023-05-05T21:27:49.801Z,23.23
2023-05-05T21:31:51.364Z,23.97
2023-05-05T21:35:52.706Z,25.87
2023-05-05T21:39:54.166Z,24.47
2023-05-05T21:43:55.645Z,24.97
2023-05-05T21:47:57.082Z,26.13
2023-05-05T21:51:58.700Z,23.13
2023-05-05T21:56:00.485Z,25.13
2023-05-05T22:00:02.728Z,28.30
2023-05-05T22:04:04.305Z,29.87
2023-05-05T22:08:06.019Z,26.33
2023-05-05T22:12:07.731Z,26.93
2023-05-05T22:16:09.988Z,26.90
2023-05-05T22:20:11.750Z,26.63
2023-05-05T22:24:13.209Z,25.33
2023-05-05T22:28:14.668Z,24.63
2023-05-05T22:32:16.031Z,24.20
2023-05-05T22:36:17.393Z,25.63
2023-05-05T22:40:18.754Z,27.47
2023-05-05T22:44:20.455Z,28.70
2023-05-05T22:48:21.869Z,28.37
2023-05-05T22:52:25.533Z,29.47
2023-05-05T22:56:26.971Z,27.07
2023-05-05T23:00:28.478Z,28.57
2023-05-05T23:04:30.043Z,25.57
2023-05-05T23:08:31.479Z,29.13
2023-05-05T23:12:33.065Z,29.13
2023-05-05T23:16:34.618Z,30.37
2023-05-05T23:20:36.052Z,28.13
2023-05-05T23:24:37.321Z,35.63
2023-05-05T23:28:38.757Z,30.27
2023-05-05T23:32:40.318Z,30.97
2023-05-05T23:36:41.792Z,29.50
2023-05-05T23:40:43.252Z,29.27
2023-05-05T23:44:44.538Z,26.40
2023-05-05T23:48:45.954Z,26.17
2023-05-05T23:52:47.321Z,27.23
2023-05-05T23:56:48.916Z,28.73
